Detalii statie MIRACOM [00001CFF]

Toti senzorii

Date Temperatura solului [C]Precipitatii [mm]Voltaj baterie [mV]Leaf Wetness [Min]HC Air temperature [C]HC Relative humidity [%]Punctul de roua [C]
medieminmaxsumaultimatimpmedieminmaxmediemediemin
2018-08-12 11:00:00 24.1 23.4 25.1 0 7332 32.63 31.14 34.08 0 0 0
2018-08-12 12:00:00 26.2 25 27.3 0 7332 34.07 32.11 35.83 0 0 0
2018-08-12 13:00:00 28.6 27.8 29.8 0 7324 33.72 32.7 35.41 0 0 0
2018-08-12 14:00:00 30.3 29.7 30.7 0 7324 33.27 29.9 35.38 0 0 0
2018-08-12 15:00:00 31.4 30.8 32 0 7324 34.26 33.17 35.77 0 0 0
2018-08-12 16:00:00 32.4 32.1 32.6 0 7332 33.13 32 34.65 0 0
2018-08-12 17:00:00 32.7 32.6 32.9 0 7314 32.85 31.5 33.83 0 0 0
2018-08-12 18:00:00 32.5 32.3 32.9 0 7148 30.75 29.29 31.66 0 0 0
2018-08-12 19:00:00 31.7 31.2 32.3 0 7020 26.82 24.6 28.94 0 0 0
2018-08-12 20:00:00 30.1 29.3 31 0 6962 23.37 22.49 24.49 0 0 0
2018-08-12 21:00:00 28.4 27.7 29.1 0 6962 20.94 20.07 22 0 0 0
2018-08-12 22:00:00 27 26.5 27.6 0 6962 20.85 20.51 21.07 0 0 0
2018-08-12 23:00:00 25.8 25.4 26.4 0 6952 19.56 18.11 20.74 0 0 0
2018-08-13 00:00:00 24.9 24.5 25.4 0 6952 18.85 17.75 19.85 0 0 0
2018-08-13 01:00:00 24.1 23.8 24.4 0 6942 19.28 19.16 19.45 0 0 0
2018-08-13 02:00:00 23.5 23.2 23.7 0 6932 18.73 17.36 19.5 0 0 0
2018-08-13 03:00:00 22.9 22.6 23.4 0 6932 16.3 15.22 17.74 0 0 0
2018-08-13 04:00:00 22.3 21.9 22.8 0 6922 15.67 14.41 16.87 0 0 0
2018-08-13 05:00:00 21.7 21.5 22 0 6914 13.98 12.83 15.1 0 0 0
2018-08-13 06:00:00 21.1 20.9 21.4 0 6942 13.65 13.37 14.17 0 0 0
2018-08-13 07:00:00 20.8 20.7 21 0 7060 15.97 14.24 18.17 0 0 0
2018-08-13 08:00:00 20.9 20.8 21.1 0 7050 21.55 18.66 24.35 0 0 0
2018-08-13 09:00:00 21.2 21 21.7 0 7098 29.37 25.45 31.46 0 0 0
2018-08-13 10:00:00 22.8 21.9 23.7 0 7236 31.63 30.85 32.64 0 0 0
2018-08-13 11:00:00 24.6 23.9 25.6 0 7332 33.32 31.17 35.31 0 0 0
2018-08-13 12:00:00 26.9 25.7 28.2 0 7324 35.05 33.74 36.2 0 0 0
2018-08-13 13:00:00 29.4 28.3 30.3 0 7324 35.3 33.53 37.66 0 0 0
2018-08-13 14:00:00 31.7 30.9 32.5 0 7324 60 35.76 35.16 36.35 0 0 0
2018-08-13 15:00:00 33 32.3 33.7 0 7332 35.23 34.14 36.09 0 0 0
2018-08-13 16:00:00 33.9 33.5 34.3 0 7332 34.08 33.06 34.82 0 0 0
2018-08-13 17:00:00 34.1 34 34.4 0 7324 33.13 32.57 33.84 0 0 0
2018-08-13 18:00:00 33.7 33.4 34 0 7148 31.06 30.15 32.33 0 0 0
2018-08-13 19:00:00 32.5 31.9 33.4 0 7000 27.08 25 29.78 0 0 0
2018-08-13 20:00:00 30.7 30 31.6 0 6962 22.77 21.11 24.77 0 0 0
2018-08-13 21:00:00 28.9 28.1 30 0 6962 20.42 18.99 21.47 0 0 0
2018-08-13 22:00:00 27.4 26.8 28 0 6952 20.54 20.01 21.13 0 0 0
2018-08-13 23:00:00 26.1 25.7 26.6 0 6952 18.88 18.37 19.9 0 0 0
2018-08-14 00:00:00 25.1 24.8 25.6 0 6942 18.54 18 19.14 0 0 0
2018-08-14 01:00:00 24.2 23.9 24.6 0 6932 16.53 14.58 18.96 0 0 0
2018-08-14 02:00:00 23.4 23.1 23.8 0 6932 14.03 13.29 14.93 0 0 0
2018-08-14 03:00:00 22.6 22.3 23 0 6914 13.43 12.43 14.12 0 0 0
2018-08-14 04:00:00 21.9 21.6 22.4 0 6904 14.28 11.8 16.11 0 0 0
2018-08-14 05:00:00 21.2 20.9 21.6 0 6904 11.93 11.54 12.4 0 0 0
2018-08-14 06:00:00 20.7 20.4 20.9 0 6952 12.02 11.64 12.65 0 0 0
2018-08-14 07:00:00 20.3 20.3 20.5 0 7070 14.83 12.98 16.82 0 0 0
2018-08-14 08:00:00 20.4 20.4 20.6 0 7060 20.95 17.46 24.92 0 0 0
2018-08-14 09:00:00 20.9 20.7 21.5 0 7080 28.62 25.4 30.83 0 0 0
2018-08-14 10:00:00 22.7 21.8 23.7 0 7236 32.28 31.06 33.19 0 0 0